sensor_id;sensor_type;location;lat;lon;timestamp;P1;durP1;ratioP1;P2;durP2;ratioP2
41623;SDS011;27319;50.306;18.926;2023-01-30T00:01:44;39.00;;;19.00;;
41623;SDS011;27319;50.306;18.926;2023-01-30T00:05:45;34.90;;;17.95;;
41623;SDS011;27319;50.306;18.926;2023-01-30T00:09:45;35.90;;;17.75;;
41623;SDS011;27319;50.306;18.926;2023-01-30T00:13:47;36.25;;;18.33;;
41623;SDS011;27319;50.306;18.926;2023-01-30T00:17:12;33.67;;;16.73;;
41623;SDS011;27319;50.306;18.926;2023-01-30T00:20:12;38.28;;;18.85;;
41623;SDS011;27319;50.306;18.926;2023-01-30T00:24:13;39.03;;;19.23;;
41623;SDS011;27319;50.306;18.926;2023-01-30T00:27:30;35.92;;;18.17;;
41623;SDS011;27319;50.306;18.926;2023-01-30T00:30:31;42.42;;;20.30;;
41623;SDS011;27319;50.306;18.926;2023-01-30T00:33:32;37.08;;;18.92;;
41623;SDS011;27319;50.306;18.926;2023-01-30T00:36:33;36.38;;;18.80;;
41623;SDS011;27319;50.306;18.926;2023-01-30T00:39:34;32.20;;;17.75;;
41623;SDS011;27319;50.306;18.926;2023-01-30T00:43:35;32.42;;;15.95;;
41623;SDS011;27319;50.306;18.926;2023-01-30T00:46:57;27.60;;;16.23;;
41623;SDS011;27319;50.306;18.926;2023-01-30T00:50:08;29.30;;;15.82;;
41623;SDS011;27319;50.306;18.926;2023-01-30T00:53:14;26.92;;;14.93;;
41623;SDS011;27319;50.306;18.926;2023-01-30T00:56:16;25.35;;;14.38;;
41623;SDS011;27319;50.306;18.926;2023-01-30T00:59:16;27.20;;;15.10;;
41623;SDS011;27319;50.306;18.926;2023-01-30T01:02:17;26.00;;;14.43;;
41623;SDS011;27319;50.306;18.926;2023-01-30T01:06:18;28.17;;;14.75;;
41623;SDS011;27319;50.306;18.926;2023-01-30T01:10:20;28.58;;;14.77;;
41623;SDS011;27319;50.306;18.926;2023-01-30T01:13:21;29.20;;;15.63;;
41623;SDS011;27319;50.306;18.926;2023-01-30T01:17:22;31.02;;;16.75;;
41623;SDS011;27319;50.306;18.926;2023-01-30T01:21:23;29.73;;;16.10;;
41623;SDS011;27319;50.306;18.926;2023-01-30T01:25:24;29.10;;;15.52;;
41623;SDS011;27319;50.306;18.926;2023-01-30T01:28:25;28.45;;;15.07;;
41623;SDS011;27319;50.306;18.926;2023-01-30T01:31:26;27.67;;;14.35;;
41623;SDS011;27319;50.306;18.926;2023-01-30T01:34:27;30.10;;;16.92;;
41623;SDS011;27319;50.306;18.926;2023-01-30T01:38:27;29.55;;;16.10;;
41623;SDS011;27319;50.306;18.926;2023-01-30T01:41:44;31.00;;;15.52;;
41623;SDS011;27319;50.306;18.926;2023-01-30T01:45:46;30.92;;;15.68;;
41623;SDS011;27319;50.306;18.926;2023-01-30T01:49:49;27.30;;;13.98;;
41623;SDS011;27319;50.306;18.926;2023-01-30T01:53:54;30.52;;;15.05;;
41623;SDS011;27319;50.306;18.926;2023-01-30T01:57:55;35.60;;;16.73;;
41623;SDS011;27319;50.306;18.926;2023-01-30T02:01:59;34.58;;;16.15;;
41623;SDS011;27319;50.306;18.926;2023-01-30T02:05:05;29.08;;;16.00;;
41623;SDS011;27319;50.306;18.926;2023-01-30T02:09:06;29.67;;;15.77;;
41623;SDS011;27319;50.306;18.926;2023-01-30T02:13:06;31.65;;;19.27;;
41623;SDS011;27319;50.306;18.926;2023-01-30T02:17:07;32.70;;;18.65;;
41623;SDS011;27319;50.306;18.926;2023-01-30T02:32:36;28.13;;;15.98;;
41623;SDS011;27319;50.306;18.926;2023-01-30T02:36:28;35.00;;;20.08;;
41623;SDS011;27319;50.306;18.926;2023-01-30T02:44:02;28.13;;;16.75;;
41623;SDS011;27319;50.306;18.926;2023-01-30T02:51:41;21.70;;;12.82;;
41623;SDS011;27319;50.306;18.926;2023-01-30T02:55:42;24.90;;;14.48;;
41623;SDS011;27319;50.306;18.926;2023-01-30T02:59:44;26.38;;;14.65;;
41623;SDS011;27319;50.306;18.926;2023-01-30T03:04:02;24.25;;;12.57;;
41623;SDS011;27319;50.306;18.926;2023-01-30T03:12:02;22.55;;;14.40;;
41623;SDS011;27319;50.306;18.926;2023-01-30T03:15:58;24.95;;;14.30;;
41623;SDS011;27319;50.306;18.926;2023-01-30T03:19:59;29.20;;;18.65;;
41623;SDS011;27319;50.306;18.926;2023-01-30T03:24:00;27.05;;;15.57;;
41623;SDS011;27319;50.306;18.926;2023-01-30T03:28:01;39.03;;;20.02;;
41623;SDS011;27319;50.306;18.926;2023-01-30T03:32:02;25.95;;;14.18;;
41623;SDS011;27319;50.306;18.926;2023-01-30T03:36:03;20.88;;;13.20;;
41623;SDS011;27319;50.306;18.926;2023-01-30T03:40:04;23.52;;;13.10;;
41623;SDS011;27319;50.306;18.926;2023-01-30T03:44:05;21.20;;;12.23;;
41623;SDS011;27319;50.306;18.926;2023-01-30T03:48:06;25.75;;;15.60;;
41623;SDS011;27319;50.306;18.926;2023-01-30T03:52:07;21.05;;;14.20;;
41623;SDS011;27319;50.306;18.926;2023-01-30T03:56:08;23.42;;;11.85;;
41623;SDS011;27319;50.306;18.926;2023-01-30T04:00:09;21.63;;;12.13;;
41623;SDS011;27319;50.306;18.926;2023-01-30T04:04:10;22.42;;;12.38;;
41623;SDS011;27319;50.306;18.926;2023-01-30T04:07:10;19.98;;;10.48;;
41623;SDS011;27319;50.306;18.926;2023-01-30T04:10:12;25.55;;;13.40;;
41623;SDS011;27319;50.306;18.926;2023-01-30T04:13:14;25.13;;;13.65;;
41623;SDS011;27319;50.306;18.926;2023-01-30T04:16:23;25.00;;;13.27;;
41623;SDS011;27319;50.306;18.926;2023-01-30T04:19:25;26.15;;;14.63;;
41623;SDS011;27319;50.306;18.926;2023-01-30T04:22:26;24.67;;;12.85;;
41623;SDS011;27319;50.306;18.926;2023-01-30T04:25:27;22.02;;;12.57;;
41623;SDS011;27319;50.306;18.926;2023-01-30T04:28:28;27.25;;;13.68;;
41623;SDS011;27319;50.306;18.926;2023-01-30T04:31:29;25.40;;;13.15;;
41623;SDS011;27319;50.306;18.926;2023-01-30T04:35:30;23.98;;;12.93;;
41623;SDS011;27319;50.306;18.926;2023-01-30T04:38:31;24.13;;;13.23;;
41623;SDS011;27319;50.306;18.926;2023-01-30T04:42:31;24.73;;;13.65;;
41623;SDS011;27319;50.306;18.926;2023-01-30T04:46:32;24.38;;;13.23;;
41623;SDS011;27319;50.306;18.926;2023-01-30T04:50:33;23.35;;;12.45;;
41623;SDS011;27319;50.306;18.926;2023-01-30T04:54:34;24.48;;;13.43;;
41623;SDS011;27319;50.306;18.926;2023-01-30T04:58:35;43.72;;;23.88;;
41623;SDS011;27319;50.306;18.926;2023-01-30T05:02:35;22.60;;;13.38;;
41623;SDS011;27319;50.306;18.926;2023-01-30T05:06:36;24.33;;;14.50;;
41623;SDS011;27319;50.306;18.926;2023-01-30T05:10:37;26.45;;;13.88;;
41623;SDS011;27319;50.306;18.926;2023-01-30T05:14:38;29.48;;;18.60;;
41623;SDS011;27319;50.306;18.926;2023-01-30T05:18:39;27.90;;;16.50;;
41623;SDS011;27319;50.306;18.926;2023-01-30T05:22:39;25.08;;;15.38;;
41623;SDS011;27319;50.306;18.926;2023-01-30T05:26:40;30.35;;;17.73;;
41623;SDS011;27319;50.306;18.926;2023-01-30T05:30:41;31.85;;;21.33;;
41623;SDS011;27319;50.306;18.926;2023-01-30T05:34:42;31.23;;;17.13;;
41623;SDS011;27319;50.306;18.926;2023-01-30T05:38:43;33.85;;;22.02;;
41623;SDS011;27319;50.306;18.926;2023-01-30T05:42:44;32.17;;;16.23;;
41623;SDS011;27319;50.306;18.926;2023-01-30T05:46:44;25.05;;;13.55;;
41623;SDS011;27319;50.306;18.926;2023-01-30T05:49:45;28.58;;;16.02;;
41623;SDS011;27319;50.306;18.926;2023-01-30T05:52:46;30.52;;;16.55;;
41623;SDS011;27319;50.306;18.926;2023-01-30T05:59:37;26.88;;;14.80;;
41623;SDS011;27319;50.306;18.926;2023-01-30T06:03:38;21.85;;;14.00;;
41623;SDS011;27319;50.306;18.926;2023-01-30T06:07:39;28.75;;;15.90;;
41623;SDS011;27319;50.306;18.926;2023-01-30T06:10:39;35.00;;;14.98;;
41623;SDS011;27319;50.306;18.926;2023-01-30T06:14:43;39.53;;;21.30;;
41623;SDS011;27319;50.306;18.926;2023-01-30T06:18:44;40.38;;;21.33;;
41623;SDS011;27319;50.306;18.926;2023-01-30T06:22:45;33.75;;;16.15;;
41623;SDS011;27319;50.306;18.926;2023-01-30T06:26:46;28.75;;;15.95;;
41623;SDS011;27319;50.306;18.926;2023-01-30T06:30:47;35.40;;;16.67;;
41623;SDS011;27319;50.306;18.926;2023-01-30T06:34:47;29.17;;;14.73;;
41623;SDS011;27319;50.306;18.926;2023-01-30T06:38:48;34.83;;;17.50;;
41623;SDS011;27319;50.306;18.926;2023-01-30T06:42:49;35.10;;;16.42;;
41623;SDS011;27319;50.306;18.926;2023-01-30T06:46:51;32.85;;;17.08;;
41623;SDS011;27319;50.306;18.926;2023-01-30T06:50:51;37.05;;;17.02;;
41623;SDS011;27319;50.306;18.926;2023-01-30T06:54:51;45.60;;;20.77;;
41623;SDS011;27319;50.306;18.926;2023-01-30T06:58:52;25.90;;;15.15;;
41623;SDS011;27319;50.306;18.926;2023-01-30T07:02:53;36.30;;;17.48;;
41623;SDS011;27319;50.306;18.926;2023-01-30T07:06:54;32.05;;;16.17;;
41623;SDS011;27319;50.306;18.926;2023-01-30T07:10:55;31.20;;;16.25;;
41623;SDS011;27319;50.306;18.926;2023-01-30T07:14:56;43.63;;;19.33;;
41623;SDS011;27319;50.306;18.926;2023-01-30T07:18:57;32.65;;;17.40;;
41623;SDS011;27319;50.306;18.926;2023-01-30T07:22:57;37.60;;;19.83;;
41623;SDS011;27319;50.306;18.926;2023-01-30T07:26:58;28.77;;;16.08;;
41623;SDS011;27319;50.306;18.926;2023-01-30T07:30:59;33.53;;;17.15;;
41623;SDS011;27319;50.306;18.926;2023-01-30T07:35:00;33.67;;;19.02;;
41623;SDS011;27319;50.306;18.926;2023-01-30T07:39:01;31.65;;;18.42;;
41623;SDS011;27319;50.306;18.926;2023-01-30T07:42:02;31.15;;;16.52;;
41623;SDS011;27319;50.306;18.926;2023-01-30T07:46:02;28.02;;;15.05;;
41623;SDS011;27319;50.306;18.926;2023-01-30T07:50:03;34.42;;;17.10;;
41623;SDS011;27319;50.306;18.926;2023-01-30T07:53:05;29.95;;;14.50;;
41623;SDS011;27319;50.306;18.926;2023-01-30T07:56:09;34.38;;;16.23;;
41623;SDS011;27319;50.306;18.926;2023-01-30T07:59:13;30.25;;;16.13;;
41623;SDS011;27319;50.306;18.926;2023-01-30T08:03:15;29.95;;;16.48;;
41623;SDS011;27319;50.306;18.926;2023-01-30T08:06:16;32.78;;;18.80;;
41623;SDS011;27319;50.306;18.926;2023-01-30T08:09:18;32.70;;;20.05;;
41623;SDS011;27319;50.306;18.926;2023-01-30T08:12:18;33.22;;;16.40;;
41623;SDS011;27319;50.306;18.926;2023-01-30T08:15:19;34.88;;;18.92;;
41623;SDS011;27319;50.306;18.926;2023-01-30T08:18:20;33.92;;;17.60;;
41623;SDS011;27319;50.306;18.926;2023-01-30T08:22:21;38.00;;;17.05;;
41623;SDS011;27319;50.306;18.926;2023-01-30T08:26:22;30.08;;;16.23;;
41623;SDS011;27319;50.306;18.926;2023-01-30T08:30:23;25.50;;;14.65;;
41623;SDS011;27319;50.306;18.926;2023-01-30T08:34:24;43.35;;;24.17;;
41623;SDS011;27319;50.306;18.926;2023-01-30T08:38:24;47.03;;;24.45;;
41623;SDS011;27319;50.306;18.926;2023-01-30T08:41:25;37.50;;;18.83;;
41623;SDS011;27319;50.306;18.926;2023-01-30T08:44:28;31.80;;;18.00;;
41623;SDS011;27319;50.306;18.926;2023-01-30T08:47:28;32.35;;;18.33;;
41623;SDS011;27319;50.306;18.926;2023-01-30T08:51:29;37.22;;;21.48;;
41623;SDS011;27319;50.306;18.926;2023-01-30T08:55:30;37.72;;;21.20;;
41623;SDS011;27319;50.306;18.926;2023-01-30T08:59:31;37.17;;;23.95;;
41623;SDS011;27319;50.306;18.926;2023-01-30T09:03:32;36.03;;;18.63;;
41623;SDS011;27319;50.306;18.926;2023-01-30T09:07:32;30.77;;;19.52;;
41623;SDS011;27319;50.306;18.926;2023-01-30T09:11:33;30.77;;;17.08;;
41623;SDS011;27319;50.306;18.926;2023-01-30T09:15:34;29.08;;;15.93;;
41623;SDS011;27319;50.306;18.926;2023-01-30T09:19:35;36.33;;;17.00;;
41623;SDS011;27319;50.306;18.926;2023-01-30T09:23:36;33.28;;;18.17;;
41623;SDS011;27319;50.306;18.926;2023-01-30T09:27:37;53.30;;;28.85;;
41623;SDS011;27319;50.306;18.926;2023-01-30T09:31:38;36.65;;;20.27;;
41623;SDS011;27319;50.306;18.926;2023-01-30T09:35:39;43.30;;;27.45;;
41623;SDS011;27319;50.306;18.926;2023-01-30T09:39:39;55.75;;;30.15;;
41623;SDS011;27319;50.306;18.926;2023-01-30T09:46:28;52.90;;;29.38;;
41623;SDS011;27319;50.306;18.926;2023-01-30T09:57:52;38.22;;;22.35;;
41623;SDS011;27319;50.306;18.926;2023-01-30T10:05:26;35.70;;;18.42;;
41623;SDS011;27319;50.306;18.926;2023-01-30T10:09:32;44.55;;;28.23;;
41623;SDS011;27319;50.306;18.926;2023-01-30T10:21:31;45.60;;;24.80;;
41623;SDS011;27319;50.306;18.926;2023-01-30T10:25:37;37.83;;;20.98;;
41623;SDS011;27319;50.306;18.926;2023-01-30T10:29:35;41.42;;;23.35;;
41623;SDS011;27319;50.306;18.926;2023-01-30T10:33:37;52.63;;;32.72;;
41623;SDS011;27319;50.306;18.926;2023-01-30T10:37:55;40.60;;;20.88;;
41623;SDS011;27319;50.306;18.926;2023-01-30T10:45:11;48.13;;;24.20;;
41623;SDS011;27319;50.306;18.926;2023-01-30T10:49:17;51.53;;;27.95;;
41623;SDS011;27319;50.306;18.926;2023-01-30T10:53:19;71.43;;;40.95;;
41623;SDS011;27319;50.306;18.926;2023-01-30T11:04:29;53.60;;;31.17;;
41623;SDS011;27319;50.306;18.926;2023-01-30T11:08:30;65.55;;;40.38;;
41623;SDS011;27319;50.306;18.926;2023-01-30T11:12:29;55.58;;;33.65;;
41623;SDS011;27319;50.306;18.926;2023-01-30T11:16:32;53.63;;;31.08;;
41623;SDS011;27319;50.306;18.926;2023-01-30T11:20:38;43.55;;;24.67;;
41623;SDS011;27319;50.306;18.926;2023-01-30T11:24:41;40.80;;;25.02;;
41623;SDS011;27319;50.306;18.926;2023-01-30T11:28:41;43.58;;;26.10;;
41623;SDS011;27319;50.306;18.926;2023-01-30T11:32:44;45.22;;;25.80;;
41623;SDS011;27319;50.306;18.926;2023-01-30T11:36:43;48.40;;;27.70;;
41623;SDS011;27319;50.306;18.926;2023-01-30T11:40:33;51.47;;;27.15;;
41623;SDS011;27319;50.306;18.926;2023-01-30T11:44:33;47.20;;;24.70;;
41623;SDS011;27319;50.306;18.926;2023-01-30T11:48:40;47.58;;;27.73;;
41623;SDS011;27319;50.306;18.926;2023-01-30T11:52:36;72.40;;;41.47;;
41623;SDS011;27319;50.306;18.926;2023-01-30T11:56:38;44.97;;;26.95;;
41623;SDS011;27319;50.306;18.926;2023-01-30T12:00:42;50.90;;;27.52;;
41623;SDS011;27319;50.306;18.926;2023-01-30T12:03:48;41.47;;;22.77;;
41623;SDS011;27319;50.306;18.926;2023-01-30T12:07:03;65.28;;;40.90;;
41623;SDS011;27319;50.306;18.926;2023-01-30T12:10:29;39.80;;;22.77;;
41623;SDS011;27319;50.306;18.926;2023-01-30T12:13:37;56.20;;;30.13;;
41623;SDS011;27319;50.306;18.926;2023-01-30T12:17:43;51.72;;;28.50;;
41623;SDS011;27319;50.306;18.926;2023-01-30T12:21:01;52.70;;;31.08;;
41623;SDS011;27319;50.306;18.926;2023-01-30T12:25:01;55.45;;;34.38;;
41623;SDS011;27319;50.306;18.926;2023-01-30T12:32:29;49.72;;;31.50;;
41623;SDS011;27319;50.306;18.926;2023-01-30T12:36:39;51.63;;;33.95;;
41623;SDS011;27319;50.306;18.926;2023-01-30T12:50:16;38.85;;;22.35;;
41623;SDS011;27319;50.306;18.926;2023-01-30T12:57:16;49.75;;;29.55;;
41623;SDS011;27319;50.306;18.926;2023-01-30T13:07:58;36.10;;;20.75;;
41623;SDS011;27319;50.306;18.926;2023-01-30T13:15:30;65.18;;;28.52;;
41623;SDS011;27319;50.306;18.926;2023-01-30T13:18:49;37.08;;;22.15;;
41623;SDS011;27319;50.306;18.926;2023-01-30T13:21:55;50.72;;;27.95;;
41623;SDS011;27319;50.306;18.926;2023-01-30T13:25:57;77.85;;;35.30;;
41623;SDS011;27319;50.306;18.926;2023-01-30T13:29:56;54.42;;;28.15;;
41623;SDS011;27319;50.306;18.926;2023-01-30T13:34:04;66.28;;;35.38;;
41623;SDS011;27319;50.306;18.926;2023-01-30T13:38:10;48.28;;;27.27;;
41623;SDS011;27319;50.306;18.926;2023-01-30T13:41:17;58.33;;;32.63;;
41623;SDS011;27319;50.306;18.926;2023-01-30T13:44:20;66.78;;;32.53;;
41623;SDS011;27319;50.306;18.926;2023-01-30T13:47:38;76.60;;;35.97;;
41623;SDS011;27319;50.306;18.926;2023-01-30T13:54:16;75.70;;;38.05;;
41623;SDS011;27319;50.306;18.926;2023-01-30T14:00:50;86.47;;;45.35;;
41623;SDS011;27319;50.306;18.926;2023-01-30T14:08:00;54.40;;;31.58;;
41623;SDS011;27319;50.306;18.926;2023-01-30T14:12:03;54.33;;;28.95;;
41623;SDS011;27319;50.306;18.926;2023-01-30T14:16:04;79.72;;;44.70;;
41623;SDS011;27319;50.306;18.926;2023-01-30T14:20:14;98.25;;;50.53;;
41623;SDS011;27319;50.306;18.926;2023-01-30T14:24:16;106.45;;;50.13;;
41623;SDS011;27319;50.306;18.926;2023-01-30T14:31:54;100.45;;;51.22;;
41623;SDS011;27319;50.306;18.926;2023-01-30T14:35:34;58.40;;;28.70;;
41623;SDS011;27319;50.306;18.926;2023-01-30T14:39:36;52.85;;;31.85;;
41623;SDS011;27319;50.306;18.926;2023-01-30T14:42:39;54.53;;;32.50;;
41623;SDS011;27319;50.306;18.926;2023-01-30T14:46:38;45.90;;;24.67;;
41623;SDS011;27319;50.306;18.926;2023-01-30T14:50:38;58.53;;;33.40;;
41623;SDS011;27319;50.306;18.926;2023-01-30T14:54:38;65.28;;;34.38;;
41623;SDS011;27319;50.306;18.926;2023-01-30T14:58:38;67.18;;;28.55;;
41623;SDS011;27319;50.306;18.926;2023-01-30T15:02:40;57.28;;;28.30;;
41623;SDS011;27319;50.306;18.926;2023-01-30T15:05:46;42.60;;;21.85;;
41623;SDS011;27319;50.306;18.926;2023-01-30T15:08:47;37.13;;;21.50;;
41623;SDS011;27319;50.306;18.926;2023-01-30T15:11:52;45.05;;;22.55;;
41623;SDS011;27319;50.306;18.926;2023-01-30T15:22:45;48.03;;;23.63;;
41623;SDS011;27319;50.306;18.926;2023-01-30T15:26:26;54.80;;;26.00;;
41623;SDS011;27319;50.306;18.926;2023-01-30T15:33:54;38.92;;;20.80;;
41623;SDS011;27319;50.306;18.926;2023-01-30T15:37:58;44.55;;;24.55;;
41623;SDS011;27319;50.306;18.926;2023-01-30T15:41:24;49.85;;;28.52;;
41623;SDS011;27319;50.306;18.926;2023-01-30T15:49:01;47.65;;;30.25;;
41623;SDS011;27319;50.306;18.926;2023-01-30T15:52:59;37.30;;;21.92;;
41623;SDS011;27319;50.306;18.926;2023-01-30T15:56:59;33.90;;;19.50;;
41623;SDS011;27319;50.306;18.926;2023-01-30T16:01:00;52.13;;;25.25;;
41623;SDS011;27319;50.306;18.926;2023-01-30T16:05:02;40.53;;;22.00;;
41623;SDS011;27319;50.306;18.926;2023-01-30T16:09:15;84.00;;;44.25;;
41623;SDS011;27319;50.306;18.926;2023-01-30T16:13:07;40.10;;;23.20;;
41623;SDS011;27319;50.306;18.926;2023-01-30T16:17:08;59.53;;;34.60;;
41623;SDS011;27319;50.306;18.926;2023-01-30T16:20:11;43.22;;;24.27;;
41623;SDS011;27319;50.306;18.926;2023-01-30T16:24:15;46.65;;;26.42;;
41623;SDS011;27319;50.306;18.926;2023-01-30T16:28:18;42.70;;;24.45;;
41623;SDS011;27319;50.306;18.926;2023-01-30T16:32:29;39.42;;;22.45;;
41623;SDS011;27319;50.306;18.926;2023-01-30T16:43:31;66.65;;;39.08;;
41623;SDS011;27319;50.306;18.926;2023-01-30T16:47:32;46.90;;;27.60;;
41623;SDS011;27319;50.306;18.926;2023-01-30T16:51:32;61.75;;;35.22;;
41623;SDS011;27319;50.306;18.926;2023-01-30T16:56:01;46.97;;;25.48;;
41623;SDS011;27319;50.306;18.926;2023-01-30T17:00:02;39.55;;;25.02;;
41623;SDS011;27319;50.306;18.926;2023-01-30T17:04:05;47.30;;;26.17;;
41623;SDS011;27319;50.306;18.926;2023-01-30T17:11:51;45.97;;;27.55;;
41623;SDS011;27319;50.306;18.926;2023-01-30T17:15:47;64.38;;;36.63;;
41623;SDS011;27319;50.306;18.926;2023-01-30T17:19:36;55.03;;;33.28;;
41623;SDS011;27319;50.306;18.926;2023-01-30T17:23:37;44.63;;;27.63;;
41623;SDS011;27319;50.306;18.926;2023-01-30T17:27:40;44.95;;;25.38;;
41623;SDS011;27319;50.306;18.926;2023-01-30T17:31:48;62.13;;;33.88;;
41623;SDS011;27319;50.306;18.926;2023-01-30T17:35:48;79.97;;;47.15;;
41623;SDS011;27319;50.306;18.926;2023-01-30T17:39:49;50.17;;;28.52;;
41623;SDS011;27319;50.306;18.926;2023-01-30T17:43:50;44.58;;;28.02;;
41623;SDS011;27319;50.306;18.926;2023-01-30T17:47:51;51.75;;;32.70;;
41623;SDS011;27319;50.306;18.926;2023-01-30T17:51:52;46.08;;;26.17;;
41623;SDS011;27319;50.306;18.926;2023-01-30T17:55:53;52.10;;;30.42;;
41623;SDS011;27319;50.306;18.926;2023-01-30T17:59:57;56.63;;;31.98;;
41623;SDS011;27319;50.306;18.926;2023-01-30T18:03:58;72.57;;;44.30;;
41623;SDS011;27319;50.306;18.926;2023-01-30T18:08:01;71.50;;;43.58;;
41623;SDS011;27319;50.306;18.926;2023-01-30T18:12:02;69.03;;;37.78;;
41623;SDS011;27319;50.306;18.926;2023-01-30T18:16:03;84.03;;;48.03;;
41623;SDS011;27319;50.306;18.926;2023-01-30T18:20:03;75.90;;;42.58;;
41623;SDS011;27319;50.306;18.926;2023-01-30T18:23:25;76.50;;;40.72;;
41623;SDS011;27319;50.306;18.926;2023-01-30T18:26:26;56.53;;;30.85;;
41623;SDS011;27319;50.306;18.926;2023-01-30T18:29:27;76.00;;;38.08;;
41623;SDS011;27319;50.306;18.926;2023-01-30T18:33:28;60.97;;;32.85;;
41623;SDS011;27319;50.306;18.926;2023-01-30T18:37:29;92.97;;;42.50;;
41623;SDS011;27319;50.306;18.926;2023-01-30T18:41:21;83.25;;;41.90;;
41623;SDS011;27319;50.306;18.926;2023-01-30T18:44:23;68.88;;;33.33;;
41623;SDS011;27319;50.306;18.926;2023-01-30T18:47:25;70.35;;;30.88;;
41623;SDS011;27319;50.306;18.926;2023-01-30T18:51:27;115.10;;;50.90;;
41623;SDS011;27319;50.306;18.926;2023-01-30T18:55:26;135.15;;;53.47;;
41623;SDS011;27319;50.306;18.926;2023-01-30T18:59:30;117.75;;;50.00;;
41623;SDS011;27319;50.306;18.926;2023-01-30T19:03:31;124.15;;;45.67;;
41623;SDS011;27319;50.306;18.926;2023-01-30T19:07:35;94.75;;;44.78;;
41623;SDS011;27319;50.306;18.926;2023-01-30T19:11:35;69.78;;;35.08;;
41623;SDS011;27319;50.306;18.926;2023-01-30T19:15:35;65.97;;;33.92;;
41623;SDS011;27319;50.306;18.926;2023-01-30T19:19:41;49.75;;;27.38;;
41623;SDS011;27319;50.306;18.926;2023-01-30T19:23:42;59.42;;;31.77;;
41623;SDS011;27319;50.306;18.926;2023-01-30T19:27:43;45.28;;;24.15;;
41623;SDS011;27319;50.306;18.926;2023-01-30T19:31:44;45.35;;;25.30;;
41623;SDS011;27319;50.306;18.926;2023-01-30T19:35:45;49.88;;;24.05;;
41623;SDS011;27319;50.306;18.926;2023-01-30T19:39:49;34.92;;;17.95;;
41623;SDS011;27319;50.306;18.926;2023-01-30T19:42:49;31.02;;;18.08;;
41623;SDS011;27319;50.306;18.926;2023-01-30T19:46:50;35.50;;;18.40;;
41623;SDS011;27319;50.306;18.926;2023-01-30T19:50:51;30.42;;;15.05;;
41623;SDS011;27319;50.306;18.926;2023-01-30T19:53:53;27.95;;;15.43;;
41623;SDS011;27319;50.306;18.926;2023-01-30T19:56:56;24.85;;;13.88;;
41623;SDS011;27319;50.306;18.926;2023-01-30T19:59:56;27.75;;;13.70;;
41623;SDS011;27319;50.306;18.926;2023-01-30T20:02:58;26.05;;;14.60;;
41623;SDS011;27319;50.306;18.926;2023-01-30T20:06:58;27.52;;;12.82;;
41623;SDS011;27319;50.306;18.926;2023-01-30T20:11:00;24.58;;;12.30;;
41623;SDS011;27319;50.306;18.926;2023-01-30T20:15:00;24.75;;;11.68;;
41623;SDS011;27319;50.306;18.926;2023-01-30T20:19:05;33.67;;;14.25;;
41623;SDS011;27319;50.306;18.926;2023-01-30T20:23:05;23.27;;;10.70;;
41623;SDS011;27319;50.306;18.926;2023-01-30T20:26:17;23.45;;;11.30;;
41623;SDS011;27319;50.306;18.926;2023-01-30T20:29:20;22.90;;;10.68;;
41623;SDS011;27319;50.306;18.926;2023-01-30T20:32:20;18.25;;;7.40;;
41623;SDS011;27319;50.306;18.926;2023-01-30T20:35:22;16.60;;;8.35;;
41623;SDS011;27319;50.306;18.926;2023-01-30T20:38:23;10.95;;;7.10;;
41623;SDS011;27319;50.306;18.926;2023-01-30T20:41:25;17.13;;;8.93;;
41623;SDS011;27319;50.306;18.926;2023-01-30T20:44:25;16.55;;;7.95;;
41623;SDS011;27319;50.306;18.926;2023-01-30T20:47:27;22.33;;;10.45;;
41623;SDS011;27319;50.306;18.926;2023-01-30T20:51:29;25.52;;;11.73;;
41623;SDS011;27319;50.306;18.926;2023-01-30T20:55:28;25.00;;;11.15;;
41623;SDS011;27319;50.306;18.926;2023-01-30T20:59:29;20.77;;;9.60;;
41623;SDS011;27319;50.306;18.926;2023-01-30T21:03:30;21.77;;;8.60;;
41623;SDS011;27319;50.306;18.926;2023-01-30T21:06:31;21.25;;;9.73;;
41623;SDS011;27319;50.306;18.926;2023-01-30T21:10:35;23.80;;;11.20;;
41623;SDS011;27319;50.306;18.926;2023-01-30T21:14:35;24.10;;;11.15;;
41623;SDS011;27319;50.306;18.926;2023-01-30T21:18:37;33.15;;;15.32;;
41623;SDS011;27319;50.306;18.926;2023-01-30T21:22:37;36.05;;;17.13;;
41623;SDS011;27319;50.306;18.926;2023-01-30T21:26:38;45.97;;;19.35;;
41623;SDS011;27319;50.306;18.926;2023-01-30T21:30:38;37.58;;;15.00;;
41623;SDS011;27319;50.306;18.926;2023-01-30T21:34:45;19.15;;;10.20;;
41623;SDS011;27319;50.306;18.926;2023-01-30T21:37:45;38.08;;;13.93;;
41623;SDS011;27319;50.306;18.926;2023-01-30T21:41:06;25.25;;;13.18;;
41623;SDS011;27319;50.306;18.926;2023-01-30T21:45:05;24.02;;;12.55;;
41623;SDS011;27319;50.306;18.926;2023-01-30T21:49:06;28.88;;;11.98;;
41623;SDS011;27319;50.306;18.926;2023-01-30T21:53:06;29.67;;;12.48;;
41623;SDS011;27319;50.306;18.926;2023-01-30T21:57:07;39.75;;;15.20;;
41623;SDS011;27319;50.306;18.926;2023-01-30T22:00:08;26.65;;;10.73;;
41623;SDS011;27319;50.306;18.926;2023-01-30T22:04:10;27.13;;;11.32;;
41623;SDS011;27319;50.306;18.926;2023-01-30T22:07:15;27.27;;;10.77;;
41623;SDS011;27319;50.306;18.926;2023-01-30T22:11:16;25.27;;;11.35;;
41623;SDS011;27319;50.306;18.926;2023-01-30T22:15:17;26.08;;;12.23;;
41623;SDS011;27319;50.306;18.926;2023-01-30T22:19:00;26.05;;;11.25;;
41623;SDS011;27319;50.306;18.926;2023-01-30T22:22:03;30.80;;;13.10;;
41623;SDS011;27319;50.306;18.926;2023-01-30T22:25:04;33.28;;;11.38;;
41623;SDS011;27319;50.306;18.926;2023-01-30T22:28:05;33.95;;;12.60;;
41623;SDS011;27319;50.306;18.926;2023-01-30T22:32:06;26.92;;;12.10;;
41623;SDS011;27319;50.306;18.926;2023-01-30T22:36:07;26.60;;;11.65;;
41623;SDS011;27319;50.306;18.926;2023-01-30T22:40:08;21.60;;;9.93;;
41623;SDS011;27319;50.306;18.926;2023-01-30T22:44:09;25.13;;;11.10;;
41623;SDS011;27319;50.306;18.926;2023-01-30T22:48:10;22.38;;;10.35;;
41623;SDS011;27319;50.306;18.926;2023-01-30T22:52:10;27.17;;;9.13;;
41623;SDS011;27319;50.306;18.926;2023-01-30T22:56:12;16.42;;;7.25;;
41623;SDS011;27319;50.306;18.926;2023-01-30T22:59:55;14.70;;;6.45;;
41623;SDS011;27319;50.306;18.926;2023-01-30T23:03:57;20.65;;;7.93;;
41623;SDS011;27319;50.306;18.926;2023-01-30T23:06:59;19.23;;;8.35;;
41623;SDS011;27319;50.306;18.926;2023-01-30T23:10:00;24.42;;;8.82;;
41623;SDS011;27319;50.306;18.926;2023-01-30T23:14:06;20.23;;;7.50;;
41623;SDS011;27319;50.306;18.926;2023-01-30T23:18:05;17.80;;;7.82;;
41623;SDS011;27319;50.306;18.926;2023-01-30T23:22:15;21.35;;;9.95;;
41623;SDS011;27319;50.306;18.926;2023-01-30T23:26:16;21.20;;;10.35;;
41623;SDS011;27319;50.306;18.926;2023-01-30T23:30:16;15.27;;;7.68;;
41623;SDS011;27319;50.306;18.926;2023-01-30T23:34:18;21.30;;;9.35;;
41623;SDS011;27319;50.306;18.926;2023-01-30T23:38:18;17.52;;;8.73;;
41623;SDS011;27319;50.306;18.926;2023-01-30T23:41:35;19.40;;;8.35;;
41623;SDS011;27319;50.306;18.926;2023-01-30T23:44:37;17.20;;;8.07;;